Flight Track Log - Related Links

Times and Time Zones

All times are in EDT time to prevent confusion due to time zone crossing. See the AAL1686 flight status page for this flight to view local times or setup timezone preferences in your user account.


Time Position Orientation Groundspeed Altitude Reporting Facility
EDT Latitude Longitude Course Direction KTS MPH feet Rate Location/Type
Tue 07:38:41 PM 33.9333 -118.4500 90° East 169 194 2,300  Level Southern California TRACON
Tue 07:39:49 PM 33.8894 -118.5031 225° Southwest 232 267 4,600 2,077 Climbing Los Angeles Center
Tue 07:40:00 PM 33.7451 -118.5939 134° Southeast  Level FlightAware Approximate
Tue 07:40:51 PM 33.8231 -118.5136 188° South 267 307 6,800  Level Los Angeles Center
Tue 07:41:00 PM 33.6747 -118.4647 101° East  Level FlightAware Approximate
Tue 07:41:52 PM 33.7275 -118.5197 183° South 291 335 10,500  Level Los Angeles Center
Tue 07:42:00 PM 33.6333 -118.3146 90° East  Level FlightAware Approximate
Tue 07:42:54 PM 33.6661 -118.4489 136° Southeast 348 400 12,500  Level Los Angeles Center
Tue 07:43:00 PM 33.6333 -118.1546 90° East  Level FlightAware Approximate
Tue 07:43:56 PM 33.6433 -118.3306 103° East 365 420 14,300  Level Los Angeles Center
Tue 07:44:00 PM 33.6334 -118.0049 90° East  Level FlightAware Approximate
Tue 07:44:58 PM 33.6450 -118.2003 89° East 397 457 16,800  Level Los Angeles Center
Tue 07:46:12 PM 33.6450 -118.0339 90° East 418 481 19,100 1,985 Climbing Los Angeles Center
Tue 07:47:14 PM 33.6447 -117.8556 90° East 441 507 21,300 1,839 Climbing Los Angeles Center
Tue 07:48:16 PM 33.6447 -117.7006 90° East 460 529 22,900 1,500 Climbing Los Angeles Center
Tue 07:49:18 PM 33.6447 -117.5394 90° East 477 549 24,400 1,306 Climbing Los Angeles Center
Tue 07:50:20 PM 33.6411 -117.3733 91° East 496 571 25,600 1,113 Climbing Los Angeles Center
Tue 07:51:22 PM 33.6403 -117.1964 90° East 528 608 26,700 1,452 Climbing Los Angeles Center
Tue 07:52:24 PM 33.6389 -116.9811 90° East 540 621 28,600 1,694 Climbing Los Angeles Center
Tue 07:53:26 PM 33.6367 -116.7847 91° East 544 626 30,200 1,412 Climbing Los Angeles Center
Tue 07:54:40 PM 33.6350 -116.6022 91° East 544 626 31,800 1,368 Climbing Los Angeles Center
Tue 07:55:42 PM 33.6311 -116.3881 91° East 536 617 33,300 1,306 Climbing Los Angeles Center
Tue 07:56:44 PM 33.6281 -116.2125 91° East 527 606 34,500 823 Climbing Los Angeles Center
Tue 07:57:46 PM 33.6633 -116.0444 76° East 515 593 35,000 242 Climbing Los Angeles Center
Tue 07:58:48 PM 33.7167 -115.8856 68° East 513 590 35,000 -48 Level Los Angeles Center
Tue 07:59:50 PM 33.7694 -115.7250 68° East 517 595 34,900  Descending Los Angeles Center
Tue 08:00:52 PM 33.8317 -115.5292 69° East 521 600 35,000 48 Climbing Los Angeles Center
Tue 08:01:54 PM 33.8833 -115.3675 69° East 521 600 35,000 -48 Level Los Angeles Center
Tue 08:02:56 PM 33.9358 -115.2047 69° East 520 598 34,900  Descending Los Angeles Center
Tue 08:03:58 PM 33.9872 -115.0422 69° East 520 598 35,000 48 Climbing Los Angeles Center
Tue 08:05:00 PM 34.0397 -114.8778 69° East 526 605 35,000 -48 Level Los Angeles Center
Tue 08:06:02 PM 34.0922 -114.7128 69° East 529 609 34,900  Descending Los Angeles Center
Tue 08:07:04 PM 34.1417 -114.5472 70° East 526 605 35,000 44 Climbing Los Angeles Center
Tue 08:08:18 PM 34.1986 -114.3386 72° East 527 606 35,000  Level Albuquerque Center
Tue 08:09:20 PM 34.2569 -114.1306 71° East 537 618 35,000  Level Albuquerque Center
Tue 08:10:22 PM 34.3042 -113.9625 71° East 533 613 35,000  Level Albuquerque Center
Tue 08:11:23 PM 34.3517 -113.7944 71° East 530 610 35,000  Level Albuquerque Center
Tue 08:12:25 PM 34.3972 -113.6272 72° East 527 606 35,000  Level Albuquerque Center
Tue 08:13:27 PM 34.4406 -113.4636 72° East 520 598 35,000  Level Albuquerque Center
Tue 08:14:28 PM 34.4853 -113.2983 72° East 518 596 35,000  Level Albuquerque Center
Tue 08:15:30 PM 34.5311 -113.1303 72° East 525 604 35,000  Level Albuquerque Center
Tue 08:16:32 PM 34.5831 -112.9325 72° East 521 600 35,000  Level Albuquerque Center
Tue 08:17:34 PM 34.6278 -112.7661 72° East 522 601 35,000  Level Albuquerque Center
Tue 08:18:35 PM 34.6719 -112.6006 72° East 523 602 35,000  Level Albuquerque Center
Tue 08:19:37 PM 34.7150 -112.4389 72° East 516 594 35,000  Level Albuquerque Center
Tue 08:20:39 PM 34.7614 -112.2767 71° East 514 592 35,000  Level Albuquerque Center
Tue 08:21:40 PM 34.8153 -112.0811 71° East 513 590 35,000  Level Albuquerque Center
Tue 08:22:42 PM 34.8611 -111.9167 71° East 516 594 35,000  Level Albuquerque Center
Tue 08:23:44 PM 34.9081 -111.7497 71° East 523 602 35,000  Level Albuquerque Center
Tue 08:24:45 PM 34.9567 -111.5717 72° East 525 604 35,000  Level Albuquerque Center
Tue 08:25:47 PM 35.0003 -111.4089 72° East 512 589 35,000  Level Albuquerque Center
Tue 08:26:49 PM 35.0456 -111.2439 71° East 512 589 35,000  Level Albuquerque Center
Tue 08:27:50 PM 35.0917 -111.0733 72° East 518 596 35,000  Level Albuquerque Center
Tue 08:28:52 PM 35.1422 -110.8872 72° East 518 596 35,000  Level Albuquerque Center
Tue 08:29:54 PM 35.1856 -110.7236 72° East 525 604 35,000  Level Albuquerque Center
Tue 08:30:55 PM 35.2356 -110.5344 72° East 525 604 35,000  Level Albuquerque Center
Tue 08:31:57 PM 35.2778 -110.3728 72° East 524 603 35,000  Level Albuquerque Center
Tue 08:32:59 PM 35.3278 -110.1844 72° East 523 602 35,000  Level Albuquerque Center
Tue 08:34:00 PM 35.3700 -110.0233 72° East 520 598 35,000  Level Albuquerque Center
Tue 08:35:02 PM 35.4128 -109.8622 72° East 520 598 35,000  Level Albuquerque Center
Tue 08:36:04 PM 35.4608 -109.6742 73° East 518 596 35,000  Level Albuquerque Center
Tue 08:37:05 PM 35.5014 -109.5142 73° East 516 594 35,000  Level Albuquerque Center
Tue 08:38:07 PM 35.5497 -109.3269 72° East 516 594 35,000  Level Albuquerque Center
Tue 08:39:09 PM 35.5892 -109.1678 73° East 514 592 35,000  Level Albuquerque Center
Tue 08:40:10 PM 35.6361 -108.9806 73° East 516 594 35,000  Level Albuquerque Center
Tue 08:41:12 PM 35.6761 -108.8228 73° East 512 589 35,000  Level Albuquerque Center
Tue 08:42:13 PM 35.7222 -108.6394 73° East 508 585 35,000  Level Albuquerque Center
Tue 08:43:15 PM 35.7614 -108.4831 73° East 505 581 35,000  Level Albuquerque Center
Tue 08:44:16 PM 35.8061 -108.3033 73° East 499 574 35,000  Level Albuquerque Center
Tue 08:45:18 PM 35.8433 -108.1481 73° East 496 571 35,000  Level Albuquerque Center
Tue 08:46:19 PM 35.8803 -107.9908 74° East 500 575 35,000  Level Albuquerque Center
Tue 08:47:21 PM 35.9244 -107.8078 73° East 500 575 35,000  Level Albuquerque Center
Tue 08:48:22 PM 35.9617 -107.6494 74° East 502 578 35,000  Level Albuquerque Center
Tue 08:49:24 PM 36.0044 -107.4619 74° East 508 585 35,000  Level Albuquerque Center
Tue 08:50:25 PM 36.0411 -107.3050 74° East 503 579 35,000  Level Albuquerque Center
Tue 08:51:27 PM 36.0814 -107.1356 74° East 500 575 35,000  Level Albuquerque Center
Tue 08:52:28 PM 36.1197 -106.9683 74° East 502 578 35,000  Level Albuquerque Center
Tue 08:53:30 PM 36.1578 -106.8044 74° East 498 573 35,000  Level Albuquerque Center
Tue 08:54:31 PM 36.1997 -106.6222 74° East 496 571 35,000  Level Albuquerque Center
Tue 08:55:33 PM 36.2350 -106.4664 74° East 494 568 35,000  Level Albuquerque Center
Tue 08:56:34 PM 36.2764 -106.2853 74° East 491 565 35,000  Level Albuquerque Center
Tue 08:57:36 PM 36.3061 -106.1497 75° East 493 567 35,000  Level Albuquerque Center
Tue 08:58:37 PM 36.3506 -105.9561 74° East 487 560 35,000  Level Albuquerque Center
Tue 08:59:39 PM 36.3847 -105.7936 75° East 487 560 35,000  Level Albuquerque Center
Tue 09:00:40 PM 36.4203 -105.6289 75° East 491 565 35,000  Level Albuquerque Center
Tue 09:01:41 PM 36.4569 -105.4608 75° East 487 560 35,000  Level Albuquerque Center
Tue 09:02:43 PM 36.4894 -105.3075 75° East 483 556 35,000  Level Albuquerque Center
Tue 09:03:44 PM 36.5231 -105.1508 75° East 481 554 35,000  Level Albuquerque Center
Tue 09:04:46 PM 36.5625 -104.9611 75° East 481 554 35,000  Level Albuquerque Center
Tue 09:05:47 PM 36.5967 -104.7975 75° East 483 556 35,000  Level Albuquerque Center
Tue 09:06:49 PM 36.6328 -104.6328 75° East 487 560 35,000  Level Albuquerque Center
Tue 09:07:50 PM 36.6656 -104.4703 76° East 482 555 35,000  Level Albuquerque Center
Tue 09:08:51 PM 36.7006 -104.3050 75° East 481 554 35,000  Level Albuquerque Center
Tue 09:09:53 PM 36.7322 -104.1500 76° East 482 555 35,000  Level Albuquerque Center
Tue 09:10:54 PM 36.7686 -103.9700 76° East 481 554 35,000  Level Albuquerque Center
Tue 09:11:56 PM 36.7994 -103.8161 76° East 480 552 35,000  Level Albuquerque Center
Tue 09:12:57 PM 36.8294 -103.6608 76° East 483 556 35,000  Level Albuquerque Center
Tue 09:13:59 PM 36.8656 -103.4803 76° East 483 556 35,000  Level Albuquerque Center
Tue 09:15:00 PM 36.8961 -103.3267 76° East 480 552 35,000  Level Albuquerque Center
Tue 09:16:01 PM 36.9306 -103.1453 77° East 482 555 35,000  Level Albuquerque Center
Tue 09:17:03 PM 36.9733 -102.9939 70° East 484 557 35,000  Level Albuquerque Center
Tue 09:18:04 PM 37.0311 -102.8214 67° East 482 555 35,000  Level Albuquerque Center
Tue 09:19:06 PM 37.0833 -102.6764 66° East 480 552 35,000  Level Albuquerque Center
Tue 09:20:07 PM 37.1392 -102.5361 63° Northeast 473 544 35,000  Level Albuquerque Center
Tue 09:21:08 PM 37.1925 -102.3658 68° East 472 543 35,000  Level Albuquerque Center
Tue 09:22:10 PM 37.2261 -102.2144 74° East 472 543 35,000  Level Albuquerque Center
Tue 09:23:11 PM 37.2625 -102.0444 75° East 483 556 35,000  Level Albuquerque Center
Tue 09:24:13 PM 37.3161 -101.8706 69° East 479 551 35,000  Level Albuquerque Center
Tue 09:25:19 PM 37.3358 -101.7083 81° East 489 563 35,000  Level Kansas City Center
Tue 09:26:20 PM 37.3592 -101.5214 81° East 488 562 35,000 49 Level Kansas City Center
Tue 09:27:22 PM 37.3786 -101.3622 81° East 485 558 35,100 683 Climbing Kansas City Center
Tue 09:28:23 PM 37.4025 -101.1775 81° East 483 556 36,400 878 Climbing Kansas City Center
Tue 09:29:25 PM 37.4222 -101.0225 81° East 476 548 36,900 293 Climbing Kansas City Center
Tue 09:30:26 PM 37.4447 -100.8422 81° East 475 547 37,000 49 Climbing Kansas City Center
Tue 09:31:28 PM 37.4703 -100.6911 78° East 470 541 37,000  Level Kansas City Center
Tue 09:32:29 PM 37.5022 -100.5128 77° East 472 543 37,000  Level Kansas City Center
Tue 09:33:31 PM 37.5247 -100.3603 79° East 469 540 37,000  Level Kansas City Center
Tue 09:34:32 PM 37.5519 -100.1825 79° East 466 536 37,000  Level Kansas City Center
Tue 09:35:34 PM 37.5742 -100.0292 80° East 466 536 37,000  Level Kansas City Center
Tue 09:36:35 PM 37.5975 -99.8753 79° East 467 537 37,000  Level Kansas City Center
Tue 09:37:37 PM 37.6247 -99.6961 79° East 468 539 37,000  Level Kansas City Center
Tue 09:38:38 PM 37.6469 -99.5414 80° East 468 539 37,000  Level Kansas City Center
Tue 09:39:39 PM 37.6717 -99.3700 80° East 473 544 37,000  Level Kansas City Center
Tue 09:40:41 PM 37.6947 -99.2042 80° East 469 540 37,000  Level Kansas City Center
Tue 09:41:42 PM 37.7189 -99.0467 79° East 470 541 37,000  Level Kansas City Center
Tue 09:42:44 PM 37.7403 -98.8847 80° East 469 540 37,000  Level Kansas City Center
Tue 09:43:45 PM 37.7628 -98.7228 80° East 468 539 37,000  Level Kansas City Center
Tue 09:44:47 PM 37.7844 -98.5583 80° East 474 545 37,000  Level Kansas City Center
Tue 09:45:48 PM 37.8128 -98.3644 79° East 468 539 37,000  Level Kansas City Center
Tue 09:46:50 PM 37.8347 -98.1986 80° East 477 549 37,000  Level Kansas City Center
Tue 09:47:51 PM 37.8567 -98.0303 81° East 485 558 37,000  Level Kansas City Center
Tue 09:48:53 PM 37.8794 -97.8533 81° East 477 549 37,000  Level Kansas City Center
Tue 09:49:54 PM 37.9014 -97.6869 80° East 478 550 37,000  Level Kansas City Center
Tue 09:50:55 PM 37.9244 -97.5081 81° East 484 557 37,000  Level Kansas City Center
Tue 09:51:57 PM 37.9456 -97.3414 81° East 489 563 37,000  Level Kansas City Center
Tue 09:52:58 PM 37.9675 -97.1725 81° East 485 558 37,000  Level Kansas City Center
Tue 09:54:00 PM 37.9886 -97.0061 81° East 480 552 37,000  Level Kansas City Center
Tue 09:55:01 PM 38.0094 -96.8394 81° East 480 552 37,000  Level Kansas City Center
Tue 09:56:03 PM 38.0289 -96.6733 81° East 477 549 37,000  Level Kansas City Center
Tue 09:57:04 PM 38.0489 -96.5081 81° East 476 548 37,000  Level Kansas City Center
Tue 09:58:05 PM 38.0692 -96.3417 81° East 478 550 37,000  Level Kansas City Center
Tue 09:59:07 PM 38.0875 -96.1781 82° East 471 542 37,000  Level Kansas City Center
Tue 10:00:08 PM 38.1089 -95.9900 82° East 466 536 37,000  Level Kansas City Center
Tue 10:02:11 PM 38.1489 -95.6472 81° East 475 547 37,000  Level Kansas City Center
Tue 10:03:12 PM 38.1656 -95.4931 82° East 465 535 37,000  Level Kansas City Center
Tue 10:04:14 PM 38.1850 -95.3175 82° East 453 521 37,000  Level Kansas City Center
Tue 10:05:15 PM 38.2017 -95.1653 82° East 455 524 37,000  Level Kansas City Center
Tue 10:06:16 PM 38.2183 -95.0128 82° East 456 525 37,000  Level Kansas City Center
Tue 10:07:18 PM 38.2369 -94.8347 82° East 456 525 37,000  Level Kansas City Center
Tue 10:08:19 PM 38.2528 -94.6850 82° East 454 522 37,000  Level Kansas City Center
Tue 10:09:20 PM 38.2708 -94.5072 83° East 454 522 37,000 -148 Level Kansas City Center
Tue 10:10:21 PM 38.2936 -94.3594 79° East 450 518 36,700 -585 Descending Kansas City Center
Tue 10:11:23 PM 38.3192 -94.2128 77° East 446 513 35,800 -1,024 Descending Kansas City Center
Tue 10:12:24 PM 38.3467 -94.0356 79° East 446 513 34,600 -1,082 Descending Kansas City Center
Tue 10:13:25 PM 38.3697 -93.8803 79° East 445 512 33,600 -984 Descending Kansas City Center
Tue 10:14:26 PM 38.3967 -93.7239 78° East 448 516 32,600 -984 Descending Kansas City Center
Tue 10:15:27 PM 38.4219 -93.5669 78° East 449 517 31,600 -787 Descending Kansas City Center
Tue 10:16:28 PM 38.4467 -93.4089 79° East 452 520 31,000 -293 Descending Kansas City Center
Tue 10:17:30 PM 38.4714 -93.2492 79° East 456 525 31,000  Level Kansas City Center
Tue 10:18:31 PM 38.4956 -93.0911 79° East 454 522 31,000  Level Kansas City Center
Tue 10:19:32 PM 38.5194 -92.9325 79° East 452 520 31,000  Level Kansas City Center
Tue 10:20:33 PM 38.5436 -92.7742 79° East 452 520 31,000  Level Kansas City Center
Tue 10:21:34 PM 38.5664 -92.6153 80° East 452 520 31,000  Level Kansas City Center
Tue 10:22:35 PM 38.5894 -92.4578 79° East 450 518 31,000  Level Kansas City Center
Tue 10:23:36 PM 38.6133 -92.2989 79° East 451 519 31,000  Level Kansas City Center
Tue 10:24:37 PM 38.6361 -92.1419 79° East 448 516 31,000 -984 Level Kansas City Center
Tue 10:25:38 PM 38.6583 -91.9850 80° East 446 513 29,000 -2,361 Descending Kansas City Center
Tue 10:26:39 PM 38.6797 -91.8275 80° East 447 514 26,200 -2,656 Descending Kansas City Center
Tue 10:27:40 PM 38.6925 -91.6750 84° East 433 498 23,600 -2,803 Descending Kansas City Center
Tue 10:28:41 PM 38.6922 -91.5233 90° East 426 490 20,500 -3,148 Descending Kansas City Center
Tue 10:29:42 PM 38.6922 -91.3686 90° East 418 481 17,200 -2,656 Descending Kansas City Center
Tue 10:30:43 PM 38.6931 -91.2250 90° East 409 471 15,100 -1,082 Descending Kansas City Center
Tue 10:31:44 PM 38.6942 -91.0881 89° East 391 450 15,000 -295 Descending Kansas City Center
Tue 10:32:45 PM 38.6944 -90.9522 90° East 384 442 14,500 -1,574 Descending Kansas City Center
Tue 10:33:46 PM 38.7028 -90.7936 86° East 373 429 11,800 -1,918 Descending Kansas City Center
Tue 10:34:47 PM 38.7086 -90.6733 86° East 343 395 10,600 -1,131 Descending Kansas City Center
Tue 10:35:48 PM 38.7125 -90.5661 87° East 317 365 9,500 -787 Descending Kansas City Center
Tue 10:36:49 PM 38.7011 -90.4681 98° East 304 350 9,000 -836 Descending Kansas City Center
Tue 10:37:50 PM 38.6569 -90.3836 124° Southeast 304 350 7,800 -1,672 Descending Kansas City Center
Tue 10:38:51 PM 38.6131 -90.3017 124° Southeast 293 337 5,600 -1,967 Descending Kansas City Center
Tue 10:39:52 PM 38.5736 -90.2217 122° Southeast 278 320 3,800 -1,230 Descending Kansas City Center
Tue 10:40:53 PM 38.6250 -90.1919 24° Northeast 237 273 3,100 -492 Descending Kansas City Center
Tue 10:41:54 PM 38.6731 -90.2383 323° Northwest 225 259 2,800 -295 Descending Kansas City Center

Login

Don't have an account? Register now (free) for customized features, flight alerts, and more!